Time;durP1;ratioP1;P1;durP2;ratioP2;P2;SDS_P1;SDS_P2;PMS_P1;PMS_P2;Temp;Humidity;BMP_temperature;BMP_pressure;BME280_temperature;BME280_humidity;BME280_pressure;Samples;Min_cycle;Max_cycle;Signal;HPM_P1;HPM_P2
2022/04/22 00:00:38;;;;;;;63.90;37.70;;;;;;;;;;6142082;28;20467;-80
2022/04/22 00:03:39;;;;;;;63.85;35.90;;;;;;;;;;6147866;29;20035;-80
2022/04/22 00:06:39;;;;;;;71.28;38.38;;;;;;;;;;6149232;29;20133;-80
2022/04/22 00:09:39;;;;;;;74.07;37.53;;;;;;;;;;6131108;29;20034;-80
2022/04/22 00:12:40;;;;;;;71.37;38.90;;;;;;;;;;6148078;29;20262;-80
2022/04/22 00:15:40;;;;;;;68.43;35.70;;;;;;;;;;6147588;29;20281;-81
2022/04/22 00:18:40;;;;;;;71.18;37.40;;;;;;;;;;6148346;29;20023;-81
2022/04/22 00:21:42;;;;;;;77.50;39.03;;;;;;;;;;6131783;29;20577;-80
2022/04/22 00:24:42;;;;;;;76.30;38.28;;;;;;;;;;6130693;28;20106;-80
2022/04/22 00:27:42;;;;;;;69.37;35.83;;;;;;;;;;6122299;29;20044;-80
2022/04/22 00:30:43;;;;;;;71.90;36.78;;;;;;;;;;6124347;29;20640;-80
2022/04/22 00:33:43;;;;;;;58.60;34.38;;;;;;;;;;6122429;29;20476;-80
2022/04/22 00:36:43;;;;;;;73.85;36.10;;;;;;;;;;6138635;29;20035;-80
2022/04/22 00:39:44;;;;;;;68.25;33.55;;;;;;;;;;6135707;29;20028;-80
2022/04/22 00:42:44;;;;;;;71.50;34.57;;;;;;;;;;6121828;29;20404;-80
2022/04/22 00:45:44;;;;;;;67.83;36.73;;;;;;;;;;6122291;29;20620;-80
2022/04/22 00:48:45;;;;;;;69.88;33.97;;;;;;;;;;6123996;29;20628;-80
2022/04/22 00:51:45;;;;;;;71.10;36.97;;;;;;;;;;6123652;29;20023;-80
2022/04/22 00:54:45;;;;;;;60.53;33.15;;;;;;;;;;6124098;29;20387;-80
2022/04/22 00:57:46;;;;;;;70.20;36.40;;;;;;;;;;6114867;29;20031;-80
2022/04/22 01:00:46;;;;;;;71.90;35.25;;;;;;;;;;6098875;29;20028;-80
2022/04/22 01:10:25;;;;;;;77.65;40.30;;;;;;;;;;6100578;29;20404;-80
2022/04/22 01:13:25;;;;;;;76.40;38.72;;;;;;;;;;6103386;29;20031;-81
2022/04/22 01:16:26;;;;;;;96.53;50.85;;;;;;;;;;6125057;29;20039;-80
2022/04/22 01:19:26;;;;;;;85.57;43.80;;;;;;;;;;6128724;29;20107;-80
2022/04/22 01:22:27;;;;;;;89.43;45.92;;;;;;;;;;6127015;29;20090;-80
2022/04/22 01:25:28;;;;;;;83.67;45.90;;;;;;;;;;6137714;28;20054;-80
2022/04/22 01:28:28;;;;;;;83.78;41.17;;;;;;;;;;6144619;29;20046;-80
2022/04/22 01:31:28;;;;;;;79.07;40.55;;;;;;;;;;6133775;29;20023;-80
2022/04/22 01:34:29;;;;;;;67.60;39.23;;;;;;;;;;6134051;29;20023;-80
2022/04/22 01:37:29;;;;;;;68.50;37.58;;;;;;;;;;6151876;29;20271;-80
2022/04/22 01:40:29;;;;;;;86.60;44.20;;;;;;;;;;6151055;29;20027;-80
2022/04/22 01:43:29;;;;;;;76.13;41.28;;;;;;;;;;6151393;29;20027;-80
2022/04/22 01:46:30;;;;;;;75.37;37.53;;;;;;;;;;6151598;29;20034;-80
2022/04/22 01:49:30;;;;;;;74.55;38.70;;;;;;;;;;6151869;29;20274;-80
2022/04/22 01:52:30;;;;;;;69.65;41.15;;;;;;;;;;6151297;29;20037;-80
2022/04/22 01:55:31;;;;;;;72.07;38.13;;;;;;;;;;6151448;28;20031;-80
2022/04/22 01:58:32;;;;;;;72.57;38.97;;;;;;;;;;6151028;29;20262;-80
2022/04/22 02:01:32;;;;;;;78.13;42.90;;;;;;;;;;6133274;28;20808;-81
2022/04/22 02:04:33;;;;;;;82.60;40.87;;;;;;;;;;6133285;29;20213;-80
2022/04/22 02:07:33;;;;;;;69.38;38.05;;;;;;;;;;6150242;29;20291;-80
2022/04/22 02:10:33;;;;;;;65.20;34.63;;;;;;;;;;6133176;29;20487;-80
2022/04/22 02:13:36;;;;;;;61.83;32.57;;;;;;;;;;6133357;29;20031;-80
2022/04/22 02:16:36;;;;;;;60.35;31.92;;;;;;;;;;6151018;29;20768;-80
2022/04/22 02:19:36;;;;;;;68.28;34.72;;;;;;;;;;6134605;29;20023;-80
2022/04/22 02:22:37;;;;;;;62.60;32.92;;;;;;;;;;6133853;28;20090;-80
2022/04/22 02:25:37;;;;;;;64.65;34.38;;;;;;;;;;6150433;28;20024;-80
2022/04/22 02:28:38;;;;;;;67.95;34.65;;;;;;;;;;6151132;29;20407;-80
2022/04/22 02:31:38;;;;;;;68.27;34.77;;;;;;;;;;6151327;29;20062;-80
2022/04/22 02:34:39;;;;;;;71.33;34.80;;;;;;;;;;6133473;29;20027;-80
2022/04/22 02:37:39;;;;;;;68.00;36.67;;;;;;;;;;6151100;29;20641;-80
2022/04/22 02:47:18;;;;;;;64.18;34.10;;;;;;;;;;6150930;29;20027;-80
2022/04/22 02:50:18;;;;;;;58.88;32.97;;;;;;;;;;6133919;29;20480;-80
2022/04/22 02:53:19;;;;;;;63.72;31.92;;;;;;;;;;6150511;29;20102;-80
2022/04/22 02:56:20;;;;;;;61.80;36.70;;;;;;;;;;6150040;28;20514;-80
2022/04/22 02:59:20;;;;;;;61.25;33.20;;;;;;;;;;6132357;29;20539;-80
2022/04/22 03:02:21;;;;;;;58.42;30.40;;;;;;;;;;6132623;29;20034;-80
2022/04/22 03:05:21;;;;;;;55.45;31.13;;;;;;;;;;6132825;29;20031;-80
2022/04/22 03:08:21;;;;;;;58.00;31.65;;;;;;;;;;6132864;29;20565;-80
2022/04/22 03:11:22;;;;;;;54.33;29.52;;;;;;;;;;6149322;29;20170;-80
2022/04/22 03:14:22;;;;;;;59.17;29.65;;;;;;;;;;6149240;29;20026;-80
2022/04/22 03:17:23;;;;;;;64.03;31.27;;;;;;;;;;6132162;29;20031;-80
2022/04/22 03:20:23;;;;;;;65.07;37.80;;;;;;;;;;6132212;29;20371;-80
2022/04/22 03:23:24;;;;;;;63.75;32.72;;;;;;;;;;6149576;29;20041;-80
2022/04/22 03:26:24;;;;;;;59.30;31.77;;;;;;;;;;6150046;28;20041;-80
2022/04/22 03:29:24;;;;;;;56.20;31.25;;;;;;;;;;6133415;29;20278;-79
2022/04/22 03:32:25;;;;;;;64.40;33.17;;;;;;;;;;6134435;29;20031;-80
2022/04/22 03:35:25;;;;;;;64.07;32.65;;;;;;;;;;6150420;28;20051;-80
2022/04/22 03:38:27;;;;;;;60.95;31.17;;;;;;;;;;6134219;29;20031;-80
2022/04/22 03:41:27;;;;;;;67.63;33.72;;;;;;;;;;6134264;29;20035;-80
2022/04/22 03:44:28;;;;;;;59.20;32.72;;;;;;;;;;6133853;29;20530;-80
2022/04/22 03:47:28;;;;;;;68.50;33.73;;;;;;;;;;6135381;29;20377;-80
2022/04/22 03:50:28;;;;;;;61.53;34.15;;;;;;;;;;6151627;29;20263;-80
2022/04/22 03:53:29;;;;;;;54.67;30.52;;;;;;;;;;6132577;29;20475;-80
2022/04/22 03:59:48;;;;;;;64.65;34.95;;;;;;;;;;6150021;29;20482;-80
2022/04/22 04:02:48;;;;;;;61.22;32.30;;;;;;;;;;6151506;29;20038;-80
2022/04/22 04:05:50;;;;;;;62.63;33.07;;;;;;;;;;6133314;29;20422;-80
2022/04/22 04:18:47;;;;;;;56.15;31.02;;;;;;;;;;6148560;29;20333;-80
2022/04/22 04:25:06;;;;;;;59.60;29.20;;;;;;;;;;6151152;28;20784;-80
2022/04/22 04:28:09;;;;;;;48.70;27.98;;;;;;;;;;6132602;29;20089;-80
2022/04/22 04:31:11;;;;;;;62.70;31.33;;;;;;;;;;6132496;29;20049;-80
2022/04/22 04:34:11;;;;;;;45.95;27.70;;;;;;;;;;6144089;29;20028;-80
2022/04/22 04:37:12;;;;;;;58.30;29.13;;;;;;;;;;6145733;29;20086;-80
2022/04/22 04:40:13;;;;;;;54.42;26.70;;;;;;;;;;6141122;29;20286;-80
2022/04/22 04:43:13;;;;;;;64.63;34.72;;;;;;;;;;6143733;29;20034;-80
2022/04/22 04:46:13;;;;;;;58.00;30.80;;;;;;;;;;6144060;28;20007;-80
2022/04/22 04:49:13;;;;;;;64.15;32.80;;;;;;;;;;6144157;29;20047;-80
2022/04/22 04:52:14;;;;;;;58.38;33.53;;;;;;;;;;6143644;29;20011;-80
2022/04/22 04:55:14;;;;;;;52.53;29.52;;;;;;;;;;6143182;28;20150;-80
2022/04/22 04:58:14;;;;;;;53.42;29.55;;;;;;;;;;6126107;29;20023;-80
2022/04/22 05:01:15;;;;;;;39.97;23.60;;;;;;;;;;6142457;29;20019;-80
2022/04/22 05:04:15;;;;;;;51.00;23.35;;;;;;;;;;6126769;29;20018;-80
2022/04/22 05:07:15;;;;;;;46.90;25.00;;;;;;;;;;6145991;29;20019;-80
2022/04/22 05:10:16;;;;;;;41.77;23.77;;;;;;;;;;6122399;28;20358;-80
2022/04/22 05:13:17;;;;;;;42.40;21.95;;;;;;;;;;6131400;29;20290;-80
2022/04/22 05:16:17;;;;;;;42.63;23.17;;;;;;;;;;6146218;29;20097;-80
2022/04/22 05:19:19;;;;;;;42.30;21.87;;;;;;;;;;6126669;29;20031;-80
2022/04/22 05:22:19;;;;;;;46.22;25.88;;;;;;;;;;6145427;29;20481;-80
2022/04/22 05:25:20;;;;;;;43.80;23.63;;;;;;;;;;6144789;28;20539;-80
2022/04/22 05:28:20;;;;;;;39.38;23.42;;;;;;;;;;6146076;29;20275;-80
2022/04/22 05:34:47;;;;;;;37.60;22.05;;;;;;;;;;6130010;29;20314;-80
2022/04/22 05:37:49;;;;;;;37.92;21.85;;;;;;;;;;6128523;29;20019;-80
2022/04/22 05:40:49;;;;;;;34.20;20.45;;;;;;;;;;6142402;29;20487;-80
2022/04/22 05:43:49;;;;;;;31.50;18.75;;;;;;;;;;6144897;28;20058;-80
2022/04/22 05:46:50;;;;;;;29.37;18.53;;;;;;;;;;6145192;29;20111;-80
2022/04/22 05:49:50;;;;;;;32.30;20.17;;;;;;;;;;6143121;29;20281;-80
2022/04/22 05:52:50;;;;;;;29.83;19.07;;;;;;;;;;6143157;29;20287;-80
2022/04/22 05:55:51;;;;;;;31.40;17.17;;;;;;;;;;6125047;29;20276;-80
2022/04/22 05:58:52;;;;;;;30.70;17.07;;;;;;;;;;6130919;29;20027;-80
2022/04/22 06:01:52;;;;;;;30.52;17.58;;;;;;;;;;6125581;28;20019;-80
2022/04/22 06:04:52;;;;;;;35.83;19.77;;;;;;;;;;6141181;29;20024;-80
2022/04/22 06:11:12;;;;;;;32.40;19.25;;;;;;;;;;6139531;29;20035;-80
2022/04/22 06:14:12;;;;;;;34.17;18.87;;;;;;;;;;6148281;29;20430;-80
2022/04/22 06:20:39;;;;;;;29.52;18.00;;;;;;;;;;6308929;27;20389;-79
2022/04/22 06:23:39;;;;;;;32.63;18.57;;;;;;;;;;6310819;28;20028;-79
2022/04/22 06:26:39;;;;;;;28.93;16.67;;;;;;;;;;6308772;28;20021;-79
2022/04/22 06:29:40;;;;;;;29.27;17.45;;;;;;;;;;6294611;28;20468;-79
2022/04/22 06:32:41;;;;;;;29.33;18.77;;;;;;;;;;6304708;28;20017;-79
2022/04/22 06:35:42;;;;;;;28.48;15.85;;;;;;;;;;6309207;28;20044;-79
2022/04/22 06:38:44;;;;;;;28.93;17.37;;;;;;;;;;6314100;28;20039;-79
2022/04/22 06:48:30;;;;;;;31.92;17.33;;;;;;;;;;6294580;28;20132;-79
2022/04/22 06:51:31;;;;;;;31.83;20.23;;;;;;;;;;6312006;28;20183;-79
2022/04/22 06:54:31;;;;;;;31.30;18.17;;;;;;;;;;6314195;28;20019;-79
2022/04/22 06:57:32;;;;;;;28.70;18.30;;;;;;;;;;6311187;28;20020;-79
2022/04/22 07:00:32;;;;;;;33.23;18.70;;;;;;;;;;6288274;28;20133;-79
2022/04/22 07:03:32;;;;;;;32.83;20.23;;;;;;;;;;6287244;28;20082;-79
2022/04/22 07:06:33;;;;;;;32.73;18.77;;;;;;;;;;6286611;28;20479;-79
2022/04/22 07:09:33;;;;;;;34.87;19.87;;;;;;;;;;6288504;28;20447;-79
2022/04/22 07:12:33;;;;;;;35.37;21.57;;;;;;;;;;6286712;28;20024;-79
2022/04/22 07:15:34;;;;;;;28.80;16.57;;;;;;;;;;6297786;28;20020;-79
2022/04/22 07:18:34;;;;;;;29.80;18.03;;;;;;;;;;6301608;28;20048;-81
2022/04/22 07:21:35;;;;;;;27.93;16.20;;;;;;;;;;6312928;28;20429;-81
2022/04/22 07:24:35;;;;;;;35.40;19.50;;;;;;;;;;6309352;28;20103;-81
2022/04/22 07:27:39;;;;;;;32.53;18.43;;;;;;;;;;6307972;28;20024;-81
2022/04/22 07:30:40;;;;;;;34.60;18.52;;;;;;;;;;6302219;28;20016;-81
2022/04/22 07:33:40;;;;;;;32.73;16.77;;;;;;;;;;6289760;28;20052;-79
2022/04/22 07:36:41;;;;;;;35.37;18.27;;;;;;;;;;6294637;28;20387;-79
2022/04/22 07:39:41;;;;;;;28.23;16.60;;;;;;;;;;6295830;28;20534;-79
2022/04/22 07:46:46;;;;;;;32.43;18.53;;;;;;;;;;6293954;28;20494;-78
2022/04/22 07:49:28;;;;;;;28.20;17.15;;;;;;;;;;6294795;28;20044;-79
2022/04/22 07:52:28;;;;;;;27.85;15.07;;;;;;;;;;6294479;28;20032;-79
2022/04/22 07:55:29;;;;;;;29.87;16.17;;;;;;;;;;6294175;28;20467;-79
2022/04/22 07:58:31;;;;;;;28.97;16.13;;;;;;;;;;6293499;28;20569;-79
2022/04/22 08:01:31;;;;;;;26.17;15.68;;;;;;;;;;6295880;28;20017;-79
2022/04/22 08:04:31;;;;;;;32.40;18.17;;;;;;;;;;6292312;28;20027;-78
2022/04/22 08:07:32;;;;;;;31.60;18.57;;;;;;;;;;6291335;28;20016;-78
2022/04/22 08:10:32;;;;;;;37.20;18.80;;;;;;;;;;6283672;28;20662;-79
2022/04/22 08:13:34;;;;;;;35.03;18.40;;;;;;;;;;6290088;28;20029;-79
2022/04/22 08:16:35;;;;;;;40.70;20.42;;;;;;;;;;6289463;28;20109;-79
2022/04/22 08:19:35;;;;;;;31.77;19.77;;;;;;;;;;6292253;28;20510;-79
2022/04/22 08:22:36;;;;;;;35.28;18.27;;;;;;;;;;6292944;28;20454;-79
2022/04/22 08:25:37;;;;;;;38.00;21.38;;;;;;;;;;6291722;28;20024;-78
2022/04/22 08:28:38;;;;;;;31.95;17.27;;;;;;;;;;6293135;28;20039;-79
2022/04/22 08:31:38;;;;;;;34.55;20.15;;;;;;;;;;6287520;28;20028;-79
2022/04/22 08:34:39;;;;;;;39.97;20.27;;;;;;;;;;6288637;28;20036;-79
2022/04/22 08:37:42;;;;;;;34.33;19.92;;;;;;;;;;6293521;28;20025;-79
2022/04/22 08:40:42;;;;;;;32.67;20.15;;;;;;;;;;6284282;28;20052;-79
2022/04/22 08:43:43;;;;;;;36.70;19.10;;;;;;;;;;6289461;28;20012;-79
2022/04/22 08:50:02;;;;;;;32.45;18.63;;;;;;;;;;6286268;28;20127;-79
2022/04/22 08:53:03;;;;;;;38.47;21.57;;;;;;;;;;6290686;28;20027;-79
2022/04/22 08:56:05;;;;;;;35.13;19.50;;;;;;;;;;6287222;28;20028;-80
2022/04/22 08:59:05;;;;;;;;;;;;;;;;;;6293509;28;20024;-79
2022/04/22 09:02:06;;;;;;;38.92;22.13;;;;;;;;;;6290736;28;20009;-79
2022/04/22 09:05:08;;;;;;;35.57;19.60;;;;;;;;;;6288592;28;20017;-80
2022/04/22 09:08:09;;;;;;;45.40;21.92;;;;;;;;;;6288867;28;20050;-80
2022/04/22 09:11:09;;;;;;;39.33;21.67;;;;;;;;;;6293930;28;20016;-79
2022/04/22 09:14:13;;;;;;;35.60;21.53;;;;;;;;;;6290119;28;20403;-80
2022/04/22 09:17:15;;;;;;;38.00;19.65;;;;;;;;;;6283842;28;20500;-80
2022/04/22 09:20:15;;;;;;;37.90;22.45;;;;;;;;;;6268624;28;20523;-80
2022/04/22 09:23:23;;;;;;;39.03;20.67;;;;;;;;;;6278656;28;20016;-79
2022/04/22 09:26:24;;;;;;;42.33;23.88;;;;;;;;;;6289284;28;20021;-79
2022/04/22 09:29:24;;;;;;;43.60;22.95;;;;;;;;;;6266463;28;20028;-79
2022/04/22 09:32:29;;;;;;;43.70;23.13;;;;;;;;;;6275312;28;20031;-79
2022/04/22 09:35:29;;;;;;;38.03;21.00;;;;;;;;;;6291818;28;20123;-79
2022/04/22 09:45:07;;;;;;;43.08;21.55;;;;;;;;;;6293220;28;20028;-80
2022/04/22 09:48:15;;;;;;;41.63;22.40;;;;;;;;;;6291307;28;20503;-80
2022/04/22 09:51:27;;;;;;;37.95;22.05;;;;;;;;;;6292989;28;20428;-80
2022/04/22 09:54:27;;;;;;;41.93;20.57;;;;;;;;;;6291468;28;20537;-80
2022/04/22 09:57:47;;;;;;;38.77;20.73;;;;;;;;;;6292405;28;20111;-80
2022/04/22 10:00:49;;;;;;;42.30;23.48;;;;;;;;;;6289819;28;20024;-79
2022/04/22 10:03:49;;;;;;;38.67;20.00;;;;;;;;;;6291999;28;20031;-79
2022/04/22 10:06:50;;;;;;;43.33;21.57;;;;;;;;;;6291290;28;20024;-79
2022/04/22 10:09:53;;;;;;;38.63;20.20;;;;;;;;;;6292500;28;20111;-79
2022/04/22 10:12:55;;;;;;;38.72;20.73;;;;;;;;;;6292411;28;20023;-79
2022/04/22 10:15:55;;;;;;;38.60;18.95;;;;;;;;;;6292991;28;20025;-79
2022/04/22 10:18:55;;;;;;;32.63;16.70;;;;;;;;;;6291162;28;20155;-79
2022/04/22 10:21:55;;;;;;;31.05;16.02;;;;;;;;;;6290995;28;20111;-79
2022/04/22 10:24:57;;;;;;;32.03;16.57;;;;;;;;;;6292265;28;20021;-79
2022/04/22 10:27:59;;;;;;;30.88;17.45;;;;;;;;;;6290837;28;20514;-79
2022/04/22 10:31:01;;;;;;;30.63;16.48;;;;;;;;;;6291253;28;20548;-79
2022/04/22 10:34:06;;;;;;;30.02;16.60;;;;;;;;;;6271925;28;20075;-79
2022/04/22 10:37:17;;;;;;;32.47;15.95;;;;;;;;;;6287932;28;20063;-79
2022/04/22 10:40:19;;;;;;;25.40;15.05;;;;;;;;;;6288434;28;20557;-79
2022/04/22 10:43:19;;;;;;;26.83;14.02;;;;;;;;;;6276144;28;20013;-78
2022/04/22 10:49:39;;;;;;;24.48;12.93;;;;;;;;;;6292232;28;20036;-78
2022/04/22 10:52:54;;;;;;;23.02;13.18;;;;;;;;;;6288872;28;20028;-78
2022/04/22 10:56:13;;;;;;;26.42;15.55;;;;;;;;;;6290121;28;20279;-79
2022/04/22 10:59:16;;;;;;;25.67;13.57;;;;;;;;;;6289526;28;20024;-79
2022/04/22 11:12:51;;;;;;;22.55;12.45;;;;;;;;;;6304832;27;20419;-79
2022/04/22 11:15:51;;;;;;;16.88;10.32;;;;;;;;;;6295468;28;20569;-79
2022/04/22 11:19:13;;;;;;;16.40;9.27;;;;;;;;;;6299793;28;20075;-79
2022/04/22 11:22:16;;;;;;;18.33;10.13;;;;;;;;;;6296085;28;20044;-79
2022/04/22 11:25:16;;;;;;;18.65;9.60;;;;;;;;;;6299504;28;20017;-79
2022/04/22 11:28:17;;;;;;;16.23;8.18;;;;;;;;;;6292563;28;20541;-79
2022/04/22 11:31:21;;;;;;;18.50;9.27;;;;;;;;;;6290762;28;20028;-80
2022/04/22 11:34:33;;;;;;;19.83;8.13;;;;;;;;;;6288966;28;20016;-79
2022/04/22 11:37:35;;;;;;;;;;;;;;;;;;6299464;28;20028;-79
2022/04/22 11:40:38;;;;;;;15.77;7.22;;;;;;;;;;6309450;28;19909;-79
2022/04/22 11:43:38;;;;;;;14.10;7.15;;;;;;;;;;6305872;28;20020;-79
2022/04/22 11:46:40;;;;;;;18.98;7.43;;;;;;;;;;6291183;28;20357;-79
2022/04/22 11:49:41;;;;;;;16.70;6.80;;;;;;;;;;6294096;28;20024;-79
2022/04/22 11:52:41;;;;;;;12.83;6.73;;;;;;;;;;6297781;28;20028;-79
2022/04/22 11:55:43;;;;;;;15.03;6.77;;;;;;;;;;6292409;28;20440;-79
2022/04/22 11:58:43;;;;;;;12.95;7.25;;;;;;;;;;6294832;28;20034;-79
2022/04/22 12:08:21;;;;;;;12.77;6.22;;;;;;;;;;6290005;28;20044;-79
2022/04/22 12:11:22;;;;;;;12.57;7.20;;;;;;;;;;6293006;28;20554;-79
2022/04/22 12:14:24;;;;;;;13.40;6.72;;;;;;;;;;6290046;28;20016;-79
2022/04/22 12:17:24;;;;;;;;;;;;;;;;;;6286760;28;20028;-79
2022/04/22 12:20:26;;;;;;;12.47;6.43;;;;;;;;;;6306806;28;19912;-79
2022/04/22 12:23:36;;;;;;;12.32;7.35;;;;;;;;;;6299632;28;20313;-79
2022/04/22 12:26:36;;;;;;;12.77;7.47;;;;;;;;;;6279376;28;20083;-79
2022/04/22 12:29:37;;;;;;;14.33;6.10;;;;;;;;;;6275447;28;20507;-79
2022/04/22 12:32:39;;;;;;;9.80;5.45;;;;;;;;;;6296020;28;20619;-79
2022/04/22 12:35:40;;;;;;;9.30;5.18;;;;;;;;;;6279595;28;20021;-79
2022/04/22 12:38:40;;;;;;;12.93;7.07;;;;;;;;;;6279289;28;20013;-79
2022/04/22 12:41:45;;;;;;;11.40;5.63;;;;;;;;;;6275239;28;20048;-79
2022/04/22 12:55:08;;;;;;;12.95;6.90;;;;;;;;;;6290554;28;20534;-79
2022/04/22 12:58:08;;;;;;;12.95;7.20;;;;;;;;;;6282430;28;20476;-79
2022/04/22 13:01:18;;;;;;;12.73;8.20;;;;;;;;;;6283425;28;20051;-79
2022/04/22 13:04:20;;;;;;;13.27;8.15;;;;;;;;;;6293104;28;20017;-79
2022/04/22 13:07:21;;;;;;;13.43;7.80;;;;;;;;;;6294793;28;20051;-79
2022/04/22 13:10:22;;;;;;;15.50;7.47;;;;;;;;;;6288107;28;20045;-80
2022/04/22 13:13:22;;;;;;;14.23;8.97;;;;;;;;;;6267757;28;20035;-79
2022/04/22 13:16:22;;;;;;;19.45;9.95;;;;;;;;;;6269633;28;20067;-79
2022/04/22 13:19:22;;;;;;;17.83;10.33;;;;;;;;;;6277650;28;20383;-79
2022/04/22 13:22:23;;;;;;;18.00;9.97;;;;;;;;;;6294664;28;20024;-79
2022/04/22 13:25:23;;;;;;;14.20;8.83;;;;;;;;;;6279326;28;20036;-80
2022/04/22 13:28:23;;;;;;;14.38;8.77;;;;;;;;;;6285518;28;20020;-79
2022/04/22 13:31:23;;;;;;;16.90;11.53;;;;;;;;;;6266266;28;20464;-79
2022/04/22 13:34:24;;;;;;;17.98;10.43;;;;;;;;;;6275591;28;20267;-80
2022/04/22 13:37:24;;;;;;;18.02;10.55;;;;;;;;;;6266766;28;20155;-80
2022/04/22 13:40:24;;;;;;;24.40;12.80;;;;;;;;;;6270366;28;20088;-80
2022/04/22 13:43:31;;;;;;;18.55;10.13;;;;;;;;;;6270930;28;20020;-80
2022/04/22 13:53:08;;;;;;;22.67;10.88;;;;;;;;;;6267809;28;20037;-80
2022/04/22 13:56:09;;;;;;;17.63;9.18;;;;;;;;;;6271852;28;20036;-80
2022/04/22 13:59:09;;;;;;;16.17;10.00;;;;;;;;;;6286373;28;20107;-80
2022/04/22 14:02:09;;;;;;;19.13;9.63;;;;;;;;;;6275531;28;20263;-80
2022/04/22 14:05:09;;;;;;;23.75;11.00;;;;;;;;;;6279451;28;20261;-80
2022/04/22 14:08:10;;;;;;;18.73;8.32;;;;;;;;;;6277140;28;20343;-80
2022/04/22 14:11:10;;;;;;;15.57;7.63;;;;;;;;;;6279342;28;20391;-80
2022/04/22 14:14:10;;;;;;;15.00;7.78;;;;;;;;;;6269442;28;20666;-80
2022/04/22 14:17:11;;;;;;;12.57;5.88;;;;;;;;;;6271959;28;20036;-80
2022/04/22 14:20:12;;;;;;;14.52;7.53;;;;;;;;;;6276755;28;20085;-80
2022/04/22 14:23:12;;;;;;;17.90;7.50;;;;;;;;;;6277187;28;20024;-80
2022/04/22 14:26:13;;;;;;;13.65;6.10;;;;;;;;;;6275230;28;20120;-80
2022/04/22 14:29:13;;;;;;;15.25;7.05;;;;;;;;;;6270323;28;20045;-80
2022/04/22 14:32:14;;;;;;;12.48;6.20;;;;;;;;;;6269829;28;20036;-80
2022/04/22 14:35:14;;;;;;;14.35;6.72;;;;;;;;;;6268139;28;20407;-80
2022/04/22 14:38:14;;;;;;;10.47;5.57;;;;;;;;;;6267697;28;20145;-80
2022/04/22 14:41:15;;;;;;;13.98;5.82;;;;;;;;;;6273240;28;20274;-80
2022/04/22 14:44:15;;;;;;;13.18;5.13;;;;;;;;;;6277225;28;20510;-80
2022/04/22 14:47:16;;;;;;;7.85;4.95;;;;;;;;;;6265697;28;20029;-80
2022/04/22 14:50:16;;;;;;;10.85;4.75;;;;;;;;;;6275743;28;20037;-80
2022/04/22 14:53:16;;;;;;;11.20;5.15;;;;;;;;;;6283081;28;20021;-80
2022/04/22 14:56:17;;;;;;;8.37;4.00;;;;;;;;;;6266415;28;20047;-80
2022/04/22 14:59:19;;;;;;;8.45;4.25;;;;;;;;;;6269762;28;20278;-80
2022/04/22 15:02:19;;;;;;;8.23;4.18;;;;;;;;;;6268764;28;20029;-80
2022/04/22 15:05:20;;;;;;;10.13;4.72;;;;;;;;;;6287364;28;20047;-80
2022/04/22 15:08:20;;;;;;;10.13;4.65;;;;;;;;;;6282244;28;20088;-80
2022/04/22 15:11:20;;;;;;;13.23;5.10;;;;;;;;;;6281191;28;20389;-80
2022/04/22 15:14:21;;;;;;;7.57;3.83;;;;;;;;;;6272985;28;20166;-80
2022/04/22 15:24:17;;;;;;;7.47;3.55;;;;;;;;;;6272078;28;20468;-80
2022/04/22 15:27:17;;;;;;;9.20;4.38;;;;;;;;;;6292875;28;20026;-80
2022/04/22 15:30:37;;;;;;;4.75;2.92;;;;;;;;;;6274547;28;20121;-80
2022/04/22 15:33:38;;;;;;;7.30;3.55;;;;;;;;;;6281978;28;20025;-80
2022/04/22 15:36:38;;;;;;;8.55;4.20;;;;;;;;;;6287280;28;20025;-80
2022/04/22 15:39:39;;;;;;;7.50;3.70;;;;;;;;;;6290567;28;20055;-80
2022/04/22 15:42:39;;;;;;;4.13;2.70;;;;;;;;;;6291499;28;20563;-80
2022/04/22 15:45:39;;;;;;;6.00;3.40;;;;;;;;;;6291662;28;20629;-80
2022/04/22 15:48:40;;;;;;;4.63;3.08;;;;;;;;;;6291215;28;20746;-80
2022/04/22 15:51:40;;;;;;;5.90;3.85;;;;;;;;;;6292947;28;20365;-80
2022/04/22 15:54:40;;;;;;;6.87;3.70;;;;;;;;;;6285912;28;20040;-80
2022/04/22 15:57:42;;;;;;;8.88;4.25;;;;;;;;;;6268489;28;20301;-80
2022/04/22 16:00:42;;;;;;;6.70;3.95;;;;;;;;;;6272610;28;20028;-80
2022/04/22 16:03:48;;;;;;;10.52;4.85;;;;;;;;;;6273468;28;20028;-80
2022/04/22 16:06:49;;;;;;;6.90;3.42;;;;;;;;;;6272199;28;20102;-80
2022/04/22 16:09:49;;;;;;;7.10;4.07;;;;;;;;;;6273406;28;20426;-80
2022/04/22 16:16:09;;;;;;;18.38;8.60;;;;;;;;;;6272946;28;20108;-80
2022/04/22 16:19:09;;;;;;;18.13;9.82;;;;;;;;;;6273740;28;20047;-80
2022/04/22 16:22:09;;;;;;;16.42;10.27;;;;;;;;;;6274062;28;20085;-80
2022/04/22 16:25:10;;;;;;;17.02;9.95;;;;;;;;;;6285134;28;20048;-80
2022/04/22 16:28:10;;;;;;;18.98;11.88;;;;;;;;;;6296597;28;20445;-80
2022/04/22 16:31:10;;;;;;;15.88;8.52;;;;;;;;;;6296056;28;20023;-80
2022/04/22 16:34:11;;;;;;;15.73;8.83;;;;;;;;;;6290665;28;20106;-80
2022/04/22 16:37:11;;;;;;;17.10;9.47;;;;;;;;;;6271418;28;20718;-80
2022/04/22 16:40:11;;;;;;;17.37;9.17;;;;;;;;;;6272462;28;20307;-80
2022/04/22 16:43:12;;;;;;;17.85;9.23;;;;;;;;;;6276328;28;20309;-80
2022/04/22 16:46:13;;;;;;;14.27;9.50;;;;;;;;;;6275379;28;20009;-80
2022/04/22 16:49:14;;;;;;;13.87;8.00;;;;;;;;;;6270077;28;20025;-80
2022/04/22 16:52:15;;;;;;;16.08;9.55;;;;;;;;;;6270250;28;20020;-80
2022/04/22 16:55:15;;;;;;;16.77;9.65;;;;;;;;;;6272247;28;20096;-80
2022/04/22 16:58:16;;;;;;;14.47;8.00;;;;;;;;;;6269979;28;20036;-80
2022/04/22 17:01:16;;;;;;;15.65;9.82;;;;;;;;;;6279500;28;20275;-80
2022/04/22 17:04:16;;;;;;;13.53;8.10;;;;;;;;;;6265510;28;20392;-80
2022/04/22 17:07:17;;;;;;;14.32;7.45;;;;;;;;;;6267985;28;20639;-80
2022/04/22 17:10:17;;;;;;;17.38;8.82;;;;;;;;;;6276236;28;20049;-80
2022/04/22 17:13:18;;;;;;;14.02;7.72;;;;;;;;;;6274465;28;20548;-80
2022/04/22 17:22:56;;;;;;;12.48;8.13;;;;;;;;;;6268584;28;20350;-80
2022/04/22 17:25:56;;;;;;;10.88;6.50;;;;;;;;;;6269173;28;20495;-80
2022/04/22 17:28:56;;;;;;;11.73;6.87;;;;;;;;;;6273339;28;20070;-80
2022/04/22 17:31:56;;;;;;;13.65;8.18;;;;;;;;;;6269525;28;20285;-80
2022/04/22 17:34:57;;;;;;;17.13;9.85;;;;;;;;;;6270913;28;20154;-80
2022/04/22 17:37:57;;;;;;;16.85;8.95;;;;;;;;;;6266611;28;20030;-80
2022/04/22 17:40:57;;;;;;;16.52;9.65;;;;;;;;;;6283268;28;20025;-80
2022/04/22 17:43:57;;;;;;;17.70;9.17;;;;;;;;;;6270666;28;20025;-80
2022/04/22 17:46:58;;;;;;;20.13;10.00;;;;;;;;;;6268329;28;20263;-80
2022/04/22 17:49:58;;;;;;;16.03;8.73;;;;;;;;;;6269318;28;20149;-80
2022/04/22 17:52:58;;;;;;;15.40;9.88;;;;;;;;;;6269141;28;20281;-80
2022/04/22 17:55:59;;;;;;;15.38;8.20;;;;;;;;;;6270159;28;20025;-80
2022/04/22 17:59:00;;;;;;;19.65;8.80;;;;;;;;;;6266204;28;20045;-80
2022/04/22 18:02:00;;;;;;;18.27;10.02;;;;;;;;;;6278118;28;20013;-80
2022/04/22 18:05:01;;;;;;;17.13;9.35;;;;;;;;;;6272402;28;20025;-80
2022/04/22 18:08:04;;;;;;;20.85;10.15;;;;;;;;;;6274479;28;20455;-80
2022/04/22 18:11:04;;;;;;;17.88;9.90;;;;;;;;;;6273238;28;20424;-79
2022/04/22 18:14:04;;;;;;;20.13;9.85;;;;;;;;;;6269972;28;20063;-80
2022/04/22 18:17:04;;;;;;;24.97;10.80;;;;;;;;;;6277567;28;20029;-80
2022/04/22 18:20:05;;;;;;;19.50;9.30;;;;;;;;;;6282342;28;20275;-80
2022/04/22 18:23:06;;;;;;;16.63;8.70;;;;;;;;;;6287990;28;20025;-80
2022/04/22 18:26:08;;;;;;;26.10;11.15;;;;;;;;;;6276310;28;20523;-80
2022/04/22 18:29:09;;;;;;;18.53;10.67;;;;;;;;;;6273996;28;20025;-80
2022/04/22 18:32:09;;;;;;;19.98;10.20;;;;;;;;;;6270597;28;20021;-80
2022/04/22 18:35:11;;;;;;;19.60;10.23;;;;;;;;;;6271398;28;20389;-80
2022/04/22 18:38:11;;;;;;;17.10;7.80;;;;;;;;;;6271151;28;20078;-80
2022/04/22 18:41:12;;;;;;;21.55;10.00;;;;;;;;;;6266376;28;20020;-80
2022/04/22 18:44:13;;;;;;;20.48;11.70;;;;;;;;;;6267313;28;20431;-80
2022/04/22 18:47:14;;;;;;;20.20;11.48;;;;;;;;;;6268141;28;20511;-80
2022/04/22 18:50:14;;;;;;;21.43;10.37;;;;;;;;;;6250148;28;20029;-80
2022/04/22 18:53:18;;;;;;;19.88;10.02;;;;;;;;;;6281074;28;20066;-80
2022/04/22 18:56:19;;;;;;;19.85;10.35;;;;;;;;;;6274654;28;20016;-80
2022/04/22 18:59:19;;;;;;;19.60;10.50;;;;;;;;;;6268694;28;20025;-80
2022/04/22 19:02:19;;;;;;;17.90;10.17;;;;;;;;;;6268120;28;20384;-80
2022/04/22 19:05:19;;;;;;;17.25;10.93;;;;;;;;;;6270035;28;20871;-80
2022/04/22 19:08:20;;;;;;;22.20;10.38;;;;;;;;;;6267596;28;20028;-80
2022/04/22 19:11:21;;;;;;;16.88;9.38;;;;;;;;;;6270651;28;20048;-80
2022/04/22 19:14:21;;;;;;;19.65;11.48;;;;;;;;;;6286988;28;20375;-80
2022/04/22 19:17:21;;;;;;;16.17;10.50;;;;;;;;;;6294070;28;20028;-80
2022/04/22 19:20:21;;;;;;;16.20;9.47;;;;;;;;;;6274572;28;20024;-79
2022/04/22 19:23:22;;;;;;;20.20;10.93;;;;;;;;;;6270331;28;20243;-80
2022/04/22 19:26:22;;;;;;;22.13;11.43;;;;;;;;;;6292931;28;20016;-80
2022/04/22 19:29:22;;;;;;;19.63;10.98;;;;;;;;;;6293659;28;20012;-80
2022/04/22 19:32:23;;;;;;;23.40;11.70;;;;;;;;;;6292922;28;20016;-80
2022/04/22 19:35:23;;;;;;;18.42;10.80;;;;;;;;;;6294841;28;20766;-80